VRE522 DGAA-DBBB
Flight info
| Callsign | VRE522 |
|---|---|
| Flight time | 0h 35m |
| Altitude | 23000 |
| Route | EREKA1D EREKA L433 MONOS MONOS1V |
| Aircraft | A320/M-SDE3FGHIRWY/LB1 |
Departure
| Time | 2026-04-29 05:20 |
|---|---|
| Airport | Kotoka International Airport (DGAA) |
Arrival
| Time | 2026-04-29 05:56 |
|---|---|
| Airport | Cotonou Cadjehoun International Airport (DBBB) |
| Time | Latitude | Longitude | Altitude | Speed | Heading |
|---|---|---|---|---|---|
| 2026-04-29 05:02 | 5.60343 | -0.17114 | 213 ft | 0 kts | 292° |
| 2026-04-29 05:10 | 5.60344 | -0.17115 | 212 ft | 0 kts | 292° |
| 2026-04-29 05:12 | 5.60336 | -0.17097 | 190 ft | 4 kts | 292° |
| 2026-04-29 05:12 | 5.60327 | -0.17075 | 221 ft | 2 kts | 292° |
| 2026-04-29 05:12 | 5.60314 | -0.17054 | 217 ft | 4 kts | 322° |
| 2026-04-29 05:13 | 5.60291 | -0.17042 | 213 ft | 4 kts | 348° |
| 2026-04-29 05:13 | 5.60264 | -0.17040 | 212 ft | 4 kts | 9° |
| 2026-04-29 05:13 | 5.60247 | -0.17044 | 212 ft | 0 kts | 22° |
| 2026-04-29 05:15 | 5.60262 | -0.17038 | 212 ft | 6 kts | 22° |
| 2026-04-29 05:15 | 5.60320 | -0.17013 | 216 ft | 12 kts | 23° |
| 2026-04-29 05:16 | 5.60418 | -0.16973 | 222 ft | 18 kts | 22° |
| 2026-04-29 05:16 | 5.60553 | -0.16917 | 224 ft | 24 kts | 23° |
| 2026-04-29 05:16 | 5.60713 | -0.16850 | 222 ft | 20 kts | 22° |
| 2026-04-29 05:16 | 5.60865 | -0.16789 | 225 ft | 27 kts | 21° |
| 2026-04-29 05:17 | 5.61052 | -0.16711 | 222 ft | 22 kts | 22° |
| 2026-04-29 05:17 | 5.61179 | -0.16658 | 223 ft | 23 kts | 21° |
| 2026-04-29 05:17 | 5.61349 | -0.16589 | 219 ft | 30 kts | 22° |
| 2026-04-29 05:17 | 5.61503 | -0.16525 | 217 ft | 21 kts | 22° |
| 2026-04-29 05:18 | 5.61614 | -0.16466 | 215 ft | 13 kts | 57° |
| 2026-04-29 05:18 | 5.61591 | -0.16367 | 212 ft | 18 kts | 130° |
| 2026-04-29 05:18 | 5.61496 | -0.16332 | 216 ft | 17 kts | 176° |
| 2026-04-29 05:18 | 5.61396 | -0.16361 | 220 ft | 7 kts | 204° |
| 2026-04-29 05:19 | 5.61388 | -0.16365 | 217 ft | 0 kts | 204° |
| 2026-04-29 05:19 | 5.61357 | -0.16380 | 220 ft | 22 kts | 206° |
| 2026-04-29 05:20 | 5.60953 | -0.16537 | 222 ft | 99 kts | 201° |
| 2026-04-29 05:20 | 5.60119 | -0.16880 | 212 ft | 158 kts | 203° |
| 2026-04-29 05:20 | 5.59023 | -0.17344 | 656 ft | 170 kts | 202° |
| 2026-04-29 05:20 | 5.57963 | -0.17786 | 1499 ft | 159 kts | 205° |
| 2026-04-29 05:21 | 5.56870 | -0.18186 | 1982 ft | 178 kts | 198° |
| 2026-04-29 05:21 | 5.55570 | -0.18410 | 2290 ft | 202 kts | 185° |
| 2026-04-29 05:21 | 5.54091 | -0.18318 | 2571 ft | 228 kts | 171° |
| 2026-04-29 05:21 | 5.52501 | -0.17777 | 3001 ft | 255 kts | 154° |
| 2026-04-29 05:22 | 5.51026 | -0.16707 | 3712 ft | 268 kts | 136° |
| 2026-04-29 05:22 | 5.49966 | -0.15161 | 4590 ft | 274 kts | 113° |
| 2026-04-29 05:22 | 5.49616 | -0.13284 | 5529 ft | 276 kts | 87° |
| 2026-04-29 05:22 | 5.50113 | -0.11430 | 6488 ft | 278 kts | 64° |
| 2026-04-29 05:23 | 5.51031 | -0.09732 | 7358 ft | 278 kts | 62° |
| 2026-04-29 05:23 | 5.51968 | -0.08034 | 8235 ft | 277 kts | 62° |
| 2026-04-29 05:23 | 5.52903 | -0.06343 | 9172 ft | 276 kts | 63° |
| 2026-04-29 05:23 | 5.53833 | -0.04654 | 10067 ft | 277 kts | 63° |
| 2026-04-29 05:24 | 5.54791 | -0.02901 | 10446 ft | 297 kts | 63° |
| 2026-04-29 05:24 | 5.55819 | -0.01011 | 10654 ft | 321 kts | 63° |
| 2026-04-29 05:24 | 5.56926 | 0.01025 | 10826 ft | 340 kts | 63° |
| 2026-04-29 05:24 | 5.58071 | 0.03130 | 11372 ft | 348 kts | 63° |
| 2026-04-29 05:25 | 5.59242 | 0.05282 | 11986 ft | 353 kts | 62° |
| 2026-04-29 05:25 | 5.60428 | 0.07454 | 12620 ft | 358 kts | 62° |
| 2026-04-29 05:25 | 5.61631 | 0.09655 | 13249 ft | 363 kts | 62° |
| 2026-04-29 05:25 | 5.62853 | 0.11895 | 13843 ft | 368 kts | 62° |
| 2026-04-29 05:26 | 5.64092 | 0.14169 | 14392 ft | 372 kts | 62° |
| 2026-04-29 05:26 | 5.65339 | 0.16456 | 14936 ft | 376 kts | 62° |
| 2026-04-29 05:26 | 5.66601 | 0.18765 | 15477 ft | 380 kts | 62° |
| 2026-04-29 05:26 | 5.67875 | 0.21097 | 16013 ft | 383 kts | 62° |
| 2026-04-29 05:27 | 5.69166 | 0.23466 | 16549 ft | 387 kts | 62° |
| 2026-04-29 05:27 | 5.71768 | 0.28254 | 17559 ft | 394 kts | 62° |
| 2026-04-29 05:27 | 5.73090 | 0.30687 | 18060 ft | 398 kts | 62° |
| 2026-04-29 05:28 | 5.74405 | 0.33107 | 18496 ft | 402 kts | 62° |
| 2026-04-29 05:28 | 5.75755 | 0.35609 | 18920 ft | 405 kts | 62° |
| 2026-04-29 05:28 | 5.77079 | 0.38081 | 19348 ft | 408 kts | 62° |
| 2026-04-29 05:28 | 5.78445 | 0.40632 | 19773 ft | 411 kts | 63° |
| 2026-04-29 05:29 | 5.79781 | 0.43133 | 20184 ft | 414 kts | 63° |
| 2026-04-29 05:29 | 5.81166 | 0.45725 | 20601 ft | 417 kts | 62° |
| 2026-04-29 05:29 | 5.82522 | 0.48254 | 21014 ft | 419 kts | 62° |
| 2026-04-29 05:29 | 5.83910 | 0.50842 | 21424 ft | 422 kts | 62° |
| 2026-04-29 05:30 | 5.85308 | 0.53452 | 21813 ft | 425 kts | 62° |
| 2026-04-29 05:30 | 5.86716 | 0.56079 | 22212 ft | 428 kts | 62° |
| 2026-04-29 05:30 | 5.88129 | 0.58714 | 22599 ft | 431 kts | 62° |
| 2026-04-29 05:30 | 5.89552 | 0.61370 | 22846 ft | 432 kts | 62° |
| 2026-04-29 05:31 | 5.90977 | 0.64036 | 22896 ft | 432 kts | 62° |
| 2026-04-29 05:31 | 5.92399 | 0.66692 | 22892 ft | 432 kts | 62° |
| 2026-04-29 05:31 | 5.93821 | 0.69344 | 22898 ft | 432 kts | 62° |
| 2026-04-29 05:31 | 5.95251 | 0.72011 | 22898 ft | 432 kts | 62° |
| 2026-04-29 05:32 | 5.96672 | 0.74662 | 22898 ft | 432 kts | 62° |
| 2026-04-29 05:32 | 5.98098 | 0.77323 | 22893 ft | 432 kts | 63° |
| 2026-04-29 05:32 | 5.99309 | 0.80068 | 22896 ft | 431 kts | 70° |
| 2026-04-29 05:32 | 6.00357 | 0.82890 | 22895 ft | 431 kts | 70° |
| 2026-04-29 05:33 | 6.01413 | 0.85727 | 22896 ft | 431 kts | 70° |
| 2026-04-29 05:33 | 6.02465 | 0.88544 | 22896 ft | 431 kts | 70° |
| 2026-04-29 05:33 | 6.03519 | 0.91357 | 22896 ft | 431 kts | 70° |
| 2026-04-29 05:33 | 6.04577 | 0.94179 | 22895 ft | 431 kts | 70° |
| 2026-04-29 05:34 | 6.05631 | 0.96995 | 22899 ft | 431 kts | 70° |
| 2026-04-29 05:34 | 6.06687 | 0.99820 | 22902 ft | 431 kts | 70° |
| 2026-04-29 05:34 | 6.07792 | 1.02626 | 22905 ft | 432 kts | 68° |
| 2026-04-29 05:34 | 6.08967 | 1.05392 | 22912 ft | 432 kts | 67° |
| 2026-04-29 05:35 | 6.10195 | 1.08154 | 22910 ft | 432 kts | 66° |
| 2026-04-29 05:35 | 6.11437 | 1.10913 | 22917 ft | 438 kts | 66° |
| 2026-04-29 05:35 | 6.12699 | 1.13733 | 22919 ft | 449 kts | 66° |
| 2026-04-29 05:35 | 6.13974 | 1.16624 | 22919 ft | 454 kts | 67° |
| 2026-04-29 05:36 | 6.15231 | 1.19503 | 22920 ft | 454 kts | 67° |
| 2026-04-29 05:36 | 6.16510 | 1.22453 | 22920 ft | 455 kts | 67° |
| 2026-04-29 05:36 | 6.17736 | 1.25332 | 22919 ft | 454 kts | 70° |
| 2026-04-29 05:36 | 6.18632 | 1.28366 | 22920 ft | 454 kts | 79° |
| 2026-04-29 05:37 | 6.19159 | 1.31537 | 22921 ft | 453 kts | 82° |
| 2026-04-29 05:37 | 6.19646 | 1.34624 | 22919 ft | 453 kts | 81° |
| 2026-04-29 05:37 | 6.20142 | 1.37749 | 22916 ft | 453 kts | 81° |
| 2026-04-29 05:37 | 6.20647 | 1.40922 | 22912 ft | 453 kts | 81° |
| 2026-04-29 05:38 | 6.21138 | 1.44005 | 22908 ft | 453 kts | 81° |
| 2026-04-29 05:38 | 6.21642 | 1.47174 | 22904 ft | 453 kts | 81° |
| 2026-04-29 05:38 | 6.21973 | 1.49251 | 22901 ft | 453 kts | 81° |
| 2026-04-29 05:38 | 6.22637 | 1.53439 | 22706 ft | 454 kts | 82° |
| 2026-04-29 05:39 | 6.23125 | 1.56524 | 21873 ft | 451 kts | 81° |
| 2026-04-29 05:39 | 6.23618 | 1.59619 | 21209 ft | 445 kts | 81° |
| 2026-04-29 05:39 | 6.23945 | 1.61673 | 21104 ft | 433 kts | 81° |
| 2026-04-29 05:39 | 6.24410 | 1.64593 | 20974 ft | 411 kts | 81° |
| 2026-04-29 05:40 | 6.24845 | 1.67326 | 20840 ft | 381 kts | 81° |
| 2026-04-29 05:40 | 6.25247 | 1.69844 | 20696 ft | 357 kts | 82° |
| 2026-04-29 05:40 | 6.25636 | 1.72286 | 20219 ft | 344 kts | 82° |
| 2026-04-29 05:40 | 6.26005 | 1.74618 | 19932 ft | 337 kts | 82° |
| 2026-04-29 05:41 | 6.26367 | 1.76920 | 19708 ft | 335 kts | 81° |
| 2026-04-29 05:41 | 6.26950 | 1.79204 | 19474 ft | 335 kts | 70° |
| 2026-04-29 05:41 | 6.27834 | 1.81338 | 19248 ft | 333 kts | 68° |
| 2026-04-29 05:41 | 6.28729 | 1.83477 | 19007 ft | 332 kts | 68° |
| 2026-04-29 05:42 | 6.29622 | 1.85623 | 18586 ft | 332 kts | 68° |
| 2026-04-29 05:42 | 6.30511 | 1.87765 | 18194 ft | 332 kts | 68° |
| 2026-04-29 05:42 | 6.31396 | 1.89897 | 17844 ft | 328 kts | 68° |
| 2026-04-29 05:42 | 6.32271 | 1.92005 | 17438 ft | 326 kts | 68° |
| 2026-04-29 05:43 | 6.33144 | 1.94104 | 17069 ft | 324 kts | 68° |
| 2026-04-29 05:43 | 6.34009 | 1.96184 | 16715 ft | 321 kts | 68° |
| 2026-04-29 05:43 | 6.34863 | 1.98244 | 16372 ft | 318 kts | 68° |
| 2026-04-29 05:43 | 6.35709 | 2.00293 | 16038 ft | 316 kts | 68° |
| 2026-04-29 05:44 | 6.36546 | 2.02323 | 15713 ft | 313 kts | 68° |
| 2026-04-29 05:44 | 6.37376 | 2.04327 | 15223 ft | 308 kts | 68° |
| 2026-04-29 05:44 | 6.38191 | 2.06295 | 14640 ft | 304 kts | 68° |
| 2026-04-29 05:44 | 6.38999 | 2.08245 | 14075 ft | 300 kts | 68° |
| 2026-04-29 05:45 | 6.39800 | 2.10178 | 13495 ft | 295 kts | 68° |
| 2026-04-29 05:45 | 6.40585 | 2.12068 | 12871 ft | 291 kts | 68° |
| 2026-04-29 05:45 | 6.41358 | 2.13929 | 12272 ft | 286 kts | 69° |
| 2026-04-29 05:45 | 6.42120 | 2.15761 | 11804 ft | 280 kts | 69° |
| 2026-04-29 05:46 | 6.42867 | 2.17565 | 11411 ft | 278 kts | 69° |
| 2026-04-29 05:46 | 6.43605 | 2.19348 | 11025 ft | 275 kts | 69° |
| 2026-04-29 05:46 | 6.44338 | 2.21116 | 10628 ft | 272 kts | 69° |
| 2026-04-29 05:46 | 6.45063 | 2.22869 | 10232 ft | 270 kts | 69° |
| 2026-04-29 05:47 | 6.45778 | 2.24604 | 9855 ft | 268 kts | 69° |
| 2026-04-29 05:47 | 6.46489 | 2.26330 | 9447 ft | 266 kts | 69° |
| 2026-04-29 05:47 | 6.47195 | 2.28041 | 9057 ft | 265 kts | 69° |
| 2026-04-29 05:47 | 6.47905 | 2.29753 | 8680 ft | 265 kts | 69° |
| 2026-04-29 05:48 | 6.48603 | 2.31440 | 8301 ft | 265 kts | 69° |
| 2026-04-29 05:48 | 6.49320 | 2.33173 | 7919 ft | 265 kts | 69° |
| 2026-04-29 05:48 | 6.50029 | 2.34885 | 7534 ft | 265 kts | 69° |
| 2026-04-29 05:48 | 6.50739 | 2.36600 | 7152 ft | 266 kts | 69° |
| 2026-04-29 05:49 | 6.51443 | 2.38296 | 6773 ft | 266 kts | 69° |
| 2026-04-29 05:49 | 6.52157 | 2.40018 | 6388 ft | 267 kts | 68° |
| 2026-04-29 05:49 | 6.52872 | 2.41746 | 5985 ft | 267 kts | 68° |
| 2026-04-29 05:49 | 6.53583 | 2.43467 | 5615 ft | 262 kts | 68° |
| 2026-04-29 05:50 | 6.54265 | 2.45118 | 5249 ft | 250 kts | 70° |
| 2026-04-29 05:50 | 6.54592 | 2.46801 | 5122 ft | 247 kts | 94° |
| 2026-04-29 05:50 | 6.54152 | 2.48460 | 4962 ft | 249 kts | 118° |
| 2026-04-29 05:50 | 6.53022 | 2.49773 | 4329 ft | 250 kts | 144° |
| 2026-04-29 05:51 | 6.51633 | 2.50783 | 3930 ft | 240 kts | 145° |
| 2026-04-29 05:51 | 6.50338 | 2.51743 | 3784 ft | 221 kts | 145° |
| 2026-04-29 05:51 | 6.49120 | 2.52589 | 3627 ft | 206 kts | 156° |
| 2026-04-29 05:51 | 6.47738 | 2.52860 | 3291 ft | 201 kts | 186° |
| 2026-04-29 05:52 | 6.46482 | 2.52446 | 3084 ft | 187 kts | 213° |
| 2026-04-29 05:52 | 6.45564 | 2.51543 | 2875 ft | 185 kts | 233° |
| 2026-04-29 05:52 | 6.44791 | 2.50511 | 2648 ft | 185 kts | 233° |
| 2026-04-29 05:52 | 6.44030 | 2.49495 | 2420 ft | 184 kts | 234° |
| 2026-04-29 05:53 | 6.43267 | 2.48480 | 2184 ft | 178 kts | 233° |
| 2026-04-29 05:53 | 6.42545 | 2.47519 | 1967 ft | 168 kts | 234° |
| 2026-04-29 05:53 | 6.41851 | 2.46598 | 1752 ft | 163 kts | 234° |
| 2026-04-29 05:53 | 6.41173 | 2.45695 | 1547 ft | 161 kts | 234° |
| 2026-04-29 05:54 | 6.40499 | 2.44799 | 1336 ft | 158 kts | 234° |
| 2026-04-29 05:54 | 6.39874 | 2.43969 | 1164 ft | 142 kts | 234° |
| 2026-04-29 05:54 | 6.39298 | 2.43203 | 977 ft | 136 kts | 234° |
| 2026-04-29 05:54 | 6.38731 | 2.42449 | 815 ft | 135 kts | 234° |
| 2026-04-29 05:55 | 6.38164 | 2.41696 | 632 ft | 135 kts | 232° |
| 2026-04-29 05:55 | 6.37609 | 2.40939 | 462 ft | 134 kts | 231° |
| 2026-04-29 05:55 | 6.37045 | 2.40195 | 270 ft | 133 kts | 230° |
| 2026-04-29 05:55 | 6.36486 | 2.39456 | 102 ft | 133 kts | 230° |
| 2026-04-29 05:56 | 6.35955 | 2.38756 | 28 ft | 112 kts | 231° |
| 2026-04-29 05:56 | 6.35586 | 2.38278 | 28 ft | 62 kts | 233° |
| 2026-04-29 05:56 | 6.35427 | 2.38067 | 27 ft | 23 kts | 224° |
| 2026-04-29 05:56 | 6.35362 | 2.38075 | 28 ft | 6 kts | 110° |
| 2026-04-29 05:57 | 6.35352 | 2.38101 | 29 ft | 2 kts | 117° |
| 2026-04-29 05:57 | 6.35348 | 2.38106 | 29 ft | 0 kts | 124° |
| 2026-04-29 05:57 | 6.35343 | 2.38114 | 30 ft | 4 kts | 127° |
| 2026-04-29 05:57 | 6.35300 | 2.38144 | 31 ft | 11 kts | 147° |
| 2026-04-29 05:58 | 6.35296 | 2.38177 | 31 ft | 8 kts | 49° |
| 2026-04-29 05:58 | 6.35347 | 2.38239 | 31 ft | 3 kts | 54° |
| 2026-04-29 05:58 | 6.35376 | 2.38282 | 31 ft | 12 kts | 55° |
| 2026-04-29 05:58 | 6.35395 | 2.38310 | 31 ft | 0 kts | 58° |
| 2026-04-29 05:59 | 6.35435 | 2.38382 | 31 ft | 0 kts | 273° |